EDDP/LEJ METAR and TAF weather

Enter ICAO airport designator
Station Type Date Time Source
EDDP METAR 2019/04/26 03:50 UTC NOAA

EDDP 260350Z 21007KT CAVOK 14/08 Q1007 BECMG 26012KT


Station Type Date Time Source
EDDP Decoded METAR 2019/04/26 03:50 UTC NOAA

Leipzig-Schkeuditz, Germany (EDDP) 51-25N 012-14E 149M
Apr 25, 2019 - 11:50 PM EDT / 2019.04.26 0350 UTC
Wind: from the SSW (210 degrees) at 8 MPH (7 KT):0
Visibility: greater than 7 mile(s):0
Temperature: 57 F (14 C)
Dew Point: 46 F (8 C)
Relative Humidity: 67%
Pressure (altimeter): 29.74 in. Hg (1007 hPa)
ob: EDDP 260350Z 21007KT CAVOK 14/08 Q1007 BECMG 26012KT
cycle: 4

Station Type Date Time Source
EDDP TAF 2019/04/25 18:27 UTC NOAA

TAF EDDP 251700Z 2518/2618 09009KT CAVOK
BECMG 2601/2603 19007KT
BECMG 2605/2607 29011KT

Example: see airport list